sensor_id;sensor_type;location;lat;lon;timestamp;temperature;humidity
19085;DHT22;9675;51.538;6.728;2023-11-19T00:02:20;11.00;99.90
19085;DHT22;9675;51.538;6.728;2023-11-19T00:04:47;11.00;99.90
19085;DHT22;9675;51.538;6.728;2023-11-19T00:07:14;11.10;99.90
19085;DHT22;9675;51.538;6.728;2023-11-19T00:09:41;11.10;99.90
19085;DHT22;9675;51.538;6.728;2023-11-19T00:12:09;11.10;99.90
19085;DHT22;9675;51.538;6.728;2023-11-19T00:14:36;11.10;99.90
19085;DHT22;9675;51.538;6.728;2023-11-19T00:17:04;11.10;99.90
19085;DHT22;9675;51.538;6.728;2023-11-19T00:19:31;11.10;99.90
19085;DHT22;9675;51.538;6.728;2023-11-19T00:21:58;11.20;99.90
19085;DHT22;9675;51.538;6.728;2023-11-19T00:24:28;11.20;99.90
19085;DHT22;9675;51.538;6.728;2023-11-19T00:26:56;11.20;99.90
19085;DHT22;9675;51.538;6.728;2023-11-19T00:29:23;11.20;99.90
19085;DHT22;9675;51.538;6.728;2023-11-19T00:31:50;11.20;99.90
19085;DHT22;9675;51.538;6.728;2023-11-19T00:34:19;11.20;99.90
19085;DHT22;9675;51.538;6.728;2023-11-19T00:36:47;11.30;99.90
19085;DHT22;9675;51.538;6.728;2023-11-19T00:39:14;11.30;99.90
19085;DHT22;9675;51.538;6.728;2023-11-19T00:41:43;11.30;99.90
19085;DHT22;9675;51.538;6.728;2023-11-19T00:44:11;11.30;99.90
19085;DHT22;9675;51.538;6.728;2023-11-19T00:46:38;11.40;99.90
19085;DHT22;9675;51.538;6.728;2023-11-19T00:49:06;11.40;99.90
19085;DHT22;9675;51.538;6.728;2023-11-19T00:51:34;11.50;99.90
19085;DHT22;9675;51.538;6.728;2023-11-19T00:54:01;11.50;99.90
19085;DHT22;9675;51.538;6.728;2023-11-19T00:56:28;11.50;99.90
19085;DHT22;9675;51.538;6.728;2023-11-19T00:58:55;11.50;99.90
19085;DHT22;9675;51.538;6.728;2023-11-19T01:01:22;11.60;99.90
19085;DHT22;9675;51.538;6.728;2023-11-19T01:03:49;11.60;99.90
19085;DHT22;9675;51.538;6.728;2023-11-19T01:06:27;11.60;99.90
19085;DHT22;9675;51.538;6.728;2023-11-19T01:08:56;11.70;99.90
19085;DHT22;9675;51.538;6.728;2023-11-19T01:11:24;11.70;99.90
19085;DHT22;9675;51.538;6.728;2023-11-19T01:13:52;11.70;99.90
19085;DHT22;9675;51.538;6.728;2023-11-19T01:16:19;11.70;99.90
19085;DHT22;9675;51.538;6.728;2023-11-19T01:18:47;11.70;99.90
19085;DHT22;9675;51.538;6.728;2023-11-19T01:21:15;11.70;99.90
19085;DHT22;9675;51.538;6.728;2023-11-19T01:23:42;11.80;99.90
19085;DHT22;9675;51.538;6.728;2023-11-19T01:26:11;11.80;99.90
19085;DHT22;9675;51.538;6.728;2023-11-19T01:28:39;11.80;99.90
19085;DHT22;9675;51.538;6.728;2023-11-19T01:31:10;11.80;99.90
19085;DHT22;9675;51.538;6.728;2023-11-19T01:33:38;11.90;99.90
19085;DHT22;9675;51.538;6.728;2023-11-19T01:36:06;11.90;99.90
19085;DHT22;9675;51.538;6.728;2023-11-19T01:38:33;11.90;99.90
19085;DHT22;9675;51.538;6.728;2023-11-19T01:41:00;11.80;99.90
19085;DHT22;9675;51.538;6.728;2023-11-19T01:43:34;11.90;99.90
19085;DHT22;9675;51.538;6.728;2023-11-19T01:46:04;11.90;99.90
19085;DHT22;9675;51.538;6.728;2023-11-19T01:48:33;11.90;99.90
19085;DHT22;9675;51.538;6.728;2023-11-19T01:51:02;12.00;99.90
19085;DHT22;9675;51.538;6.728;2023-11-19T01:53:30;12.00;99.90
19085;DHT22;9675;51.538;6.728;2023-11-19T01:55:59;12.00;99.90
19085;DHT22;9675;51.538;6.728;2023-11-19T01:58:28;12.00;99.90
19085;DHT22;9675;51.538;6.728;2023-11-19T02:00:57;12.00;99.90
19085;DHT22;9675;51.538;6.728;2023-11-19T02:03:26;12.10;99.90
19085;DHT22;9675;51.538;6.728;2023-11-19T02:05:54;12.10;99.90
19085;DHT22;9675;51.538;6.728;2023-11-19T02:08:22;12.10;99.90
19085;DHT22;9675;51.538;6.728;2023-11-19T02:10:49;12.20;99.90
19085;DHT22;9675;51.538;6.728;2023-11-19T02:13:16;12.20;99.90
19085;DHT22;9675;51.538;6.728;2023-11-19T02:15:44;12.20;99.90
19085;DHT22;9675;51.538;6.728;2023-11-19T02:18:19;12.20;99.90
19085;DHT22;9675;51.538;6.728;2023-11-19T02:20:48;12.10;99.90
19085;DHT22;9675;51.538;6.728;2023-11-19T02:23:16;12.20;99.90
19085;DHT22;9675;51.538;6.728;2023-11-19T02:25:47;12.10;99.90
19085;DHT22;9675;51.538;6.728;2023-11-19T02:28:30;12.20;99.90
19085;DHT22;9675;51.538;6.728;2023-11-19T02:30:58;12.20;99.90
19085;DHT22;9675;51.538;6.728;2023-11-19T02:33:25;12.20;99.90
19085;DHT22;9675;51.538;6.728;2023-11-19T02:35:52;12.20;99.90
19085;DHT22;9675;51.538;6.728;2023-11-19T02:38:19;12.20;99.90
19085;DHT22;9675;51.538;6.728;2023-11-19T02:40:47;12.20;99.90
19085;DHT22;9675;51.538;6.728;2023-11-19T02:43:14;12.20;99.90
19085;DHT22;9675;51.538;6.728;2023-11-19T02:45:43;12.20;99.90
19085;DHT22;9675;51.538;6.728;2023-11-19T02:48:11;12.20;99.90
19085;DHT22;9675;51.538;6.728;2023-11-19T02:50:39;12.20;99.90
19085;DHT22;9675;51.538;6.728;2023-11-19T02:53:07;12.20;99.90
19085;DHT22;9675;51.538;6.728;2023-11-19T02:55:34;12.30;99.90
19085;DHT22;9675;51.538;6.728;2023-11-19T02:58:03;12.30;99.90
19085;DHT22;9675;51.538;6.728;2023-11-19T03:00:40;12.30;99.90
19085;DHT22;9675;51.538;6.728;2023-11-19T03:03:15;12.30;99.90
19085;DHT22;9675;51.538;6.728;2023-11-19T03:05:46;12.30;99.90
19085;DHT22;9675;51.538;6.728;2023-11-19T03:08:14;12.30;99.90
19085;DHT22;9675;51.538;6.728;2023-11-19T03:10:41;12.30;99.90
19085;DHT22;9675;51.538;6.728;2023-11-19T03:13:12;12.30;99.90
19085;DHT22;9675;51.538;6.728;2023-11-19T03:15:40;12.30;99.90
19085;DHT22;9675;51.538;6.728;2023-11-19T03:18:08;12.30;99.90
19085;DHT22;9675;51.538;6.728;2023-11-19T03:20:36;12.30;99.90
19085;DHT22;9675;51.538;6.728;2023-11-19T03:23:03;12.40;99.90
19085;DHT22;9675;51.538;6.728;2023-11-19T03:25:31;12.40;99.90
19085;DHT22;9675;51.538;6.728;2023-11-19T03:28:00;12.40;99.90
19085;DHT22;9675;51.538;6.728;2023-11-19T03:30:28;12.40;99.90
19085;DHT22;9675;51.538;6.728;2023-11-19T03:32:55;12.40;99.90
19085;DHT22;9675;51.538;6.728;2023-11-19T03:35:23;12.40;99.90
19085;DHT22;9675;51.538;6.728;2023-11-19T03:37:52;12.30;99.90
19085;DHT22;9675;51.538;6.728;2023-11-19T03:40:19;12.40;99.90
19085;DHT22;9675;51.538;6.728;2023-11-19T03:42:46;12.40;99.90
19085;DHT22;9675;51.538;6.728;2023-11-19T03:45:13;12.40;99.90
19085;DHT22;9675;51.538;6.728;2023-11-19T03:47:41;12.30;99.90
19085;DHT22;9675;51.538;6.728;2023-11-19T03:50:09;12.40;99.90
19085;DHT22;9675;51.538;6.728;2023-11-19T03:52:36;12.30;99.90
19085;DHT22;9675;51.538;6.728;2023-11-19T03:55:05;12.30;99.90
19085;DHT22;9675;51.538;6.728;2023-11-19T03:57:34;12.30;99.90
19085;DHT22;9675;51.538;6.728;2023-11-19T04:00:01;12.30;99.90
19085;DHT22;9675;51.538;6.728;2023-11-19T04:02:34;12.30;99.90
19085;DHT22;9675;51.538;6.728;2023-11-19T04:05:01;12.30;99.90
19085;DHT22;9675;51.538;6.728;2023-11-19T04:07:28;12.30;99.90
19085;DHT22;9675;51.538;6.728;2023-11-19T04:09:55;12.30;99.90
19085;DHT22;9675;51.538;6.728;2023-11-19T04:12:24;12.20;99.90
19085;DHT22;9675;51.538;6.728;2023-11-19T04:14:51;12.20;99.90
19085;DHT22;9675;51.538;6.728;2023-11-19T04:17:18;12.30;99.90
19085;DHT22;9675;51.538;6.728;2023-11-19T04:19:45;12.20;99.90
19085;DHT22;9675;51.538;6.728;2023-11-19T04:22:12;12.20;99.90
19085;DHT22;9675;51.538;6.728;2023-11-19T04:24:40;12.20;99.90
19085;DHT22;9675;51.538;6.728;2023-11-19T04:27:09;12.20;99.90
19085;DHT22;9675;51.538;6.728;2023-11-19T04:29:37;12.20;99.90
19085;DHT22;9675;51.538;6.728;2023-11-19T04:32:05;12.20;99.90
19085;DHT22;9675;51.538;6.728;2023-11-19T04:34:33;12.20;99.90
19085;DHT22;9675;51.538;6.728;2023-11-19T04:37:00;12.10;99.90
19085;DHT22;9675;51.538;6.728;2023-11-19T04:39:29;12.10;99.90
19085;DHT22;9675;51.538;6.728;2023-11-19T04:41:56;12.10;99.90
19085;DHT22;9675;51.538;6.728;2023-11-19T04:44:23;12.10;99.90
19085;DHT22;9675;51.538;6.728;2023-11-19T04:46:51;12.10;99.90
19085;DHT22;9675;51.538;6.728;2023-11-19T04:49:18;12.10;99.90
19085;DHT22;9675;51.538;6.728;2023-11-19T04:51:46;12.00;99.90
19085;DHT22;9675;51.538;6.728;2023-11-19T04:54:13;12.10;99.90
19085;DHT22;9675;51.538;6.728;2023-11-19T04:56:40;12.10;99.90
19085;DHT22;9675;51.538;6.728;2023-11-19T04:59:12;12.00;99.90
19085;DHT22;9675;51.538;6.728;2023-11-19T05:01:39;12.00;99.90
19085;DHT22;9675;51.538;6.728;2023-11-19T05:04:08;12.00;99.90
19085;DHT22;9675;51.538;6.728;2023-11-19T05:06:35;12.00;99.90
19085;DHT22;9675;51.538;6.728;2023-11-19T05:09:03;12.00;99.90
19085;DHT22;9675;51.538;6.728;2023-11-19T05:11:32;12.00;99.90
19085;DHT22;9675;51.538;6.728;2023-11-19T05:14:00;12.00;99.90
19085;DHT22;9675;51.538;6.728;2023-11-19T05:16:29;12.00;99.90
19085;DHT22;9675;51.538;6.728;2023-11-19T05:18:56;12.00;99.90
19085;DHT22;9675;51.538;6.728;2023-11-19T05:21:23;12.00;99.90
19085;DHT22;9675;51.538;6.728;2023-11-19T05:23:50;12.00;99.90
19085;DHT22;9675;51.538;6.728;2023-11-19T05:26:18;12.00;99.90
19085;DHT22;9675;51.538;6.728;2023-11-19T05:28:46;12.00;99.90
19085;DHT22;9675;51.538;6.728;2023-11-19T05:31:14;12.00;99.90
19085;DHT22;9675;51.538;6.728;2023-11-19T05:33:43;12.00;99.90
19085;DHT22;9675;51.538;6.728;2023-11-19T05:36:11;12.00;99.90
19085;DHT22;9675;51.538;6.728;2023-11-19T05:38:40;12.00;99.90
19085;DHT22;9675;51.538;6.728;2023-11-19T05:41:07;12.00;99.90
19085;DHT22;9675;51.538;6.728;2023-11-19T05:43:34;12.00;99.90
19085;DHT22;9675;51.538;6.728;2023-11-19T05:46:02;12.00;99.90
19085;DHT22;9675;51.538;6.728;2023-11-19T05:48:29;12.00;99.90
19085;DHT22;9675;51.538;6.728;2023-11-19T05:50:56;11.90;99.90
19085;DHT22;9675;51.538;6.728;2023-11-19T05:53:23;11.90;99.90
19085;DHT22;9675;51.538;6.728;2023-11-19T05:55:51;11.90;99.90
19085;DHT22;9675;51.538;6.728;2023-11-19T05:58:23;11.90;99.90
19085;DHT22;9675;51.538;6.728;2023-11-19T06:00:54;11.90;99.90
19085;DHT22;9675;51.538;6.728;2023-11-19T06:03:21;11.90;99.90
19085;DHT22;9675;51.538;6.728;2023-11-19T06:05:48;11.90;99.90
19085;DHT22;9675;51.538;6.728;2023-11-19T06:08:16;11.90;99.90
19085;DHT22;9675;51.538;6.728;2023-11-19T06:10:44;11.90;99.90
19085;DHT22;9675;51.538;6.728;2023-11-19T06:13:13;11.90;99.90
19085;DHT22;9675;51.538;6.728;2023-11-19T06:15:41;11.90;99.90
19085;DHT22;9675;51.538;6.728;2023-11-19T06:18:09;11.80;99.90
19085;DHT22;9675;51.538;6.728;2023-11-19T06:20:37;11.80;99.90
19085;DHT22;9675;51.538;6.728;2023-11-19T06:23:05;11.80;99.90
19085;DHT22;9675;51.538;6.728;2023-11-19T06:25:32;11.80;99.90
19085;DHT22;9675;51.538;6.728;2023-11-19T06:28:00;11.80;99.90
19085;DHT22;9675;51.538;6.728;2023-11-19T06:30:29;11.80;99.90
19085;DHT22;9675;51.538;6.728;2023-11-19T06:32:58;11.70;99.90
19085;DHT22;9675;51.538;6.728;2023-11-19T06:35:25;11.70;99.90
19085;DHT22;9675;51.538;6.728;2023-11-19T06:37:52;11.70;99.90
19085;DHT22;9675;51.538;6.728;2023-11-19T06:40:19;11.80;99.90
19085;DHT22;9675;51.538;6.728;2023-11-19T06:42:46;11.70;99.90
19085;DHT22;9675;51.538;6.728;2023-11-19T06:45:13;11.70;99.90
19085;DHT22;9675;51.538;6.728;2023-11-19T06:47:41;11.70;99.90
19085;DHT22;9675;51.538;6.728;2023-11-19T06:50:08;11.70;99.90
19085;DHT22;9675;51.538;6.728;2023-11-19T06:52:37;11.70;99.90
19085;DHT22;9675;51.538;6.728;2023-11-19T06:55:06;11.70;99.90
19085;DHT22;9675;51.538;6.728;2023-11-19T06:57:33;11.70;99.90
19085;DHT22;9675;51.538;6.728;2023-11-19T07:00:00;11.60;99.90
19085;DHT22;9675;51.538;6.728;2023-11-19T07:02:28;11.60;99.90
19085;DHT22;9675;51.538;6.728;2023-11-19T07:04:57;11.60;99.90
19085;DHT22;9675;51.538;6.728;2023-11-19T07:07:25;11.60;99.90
19085;DHT22;9675;51.538;6.728;2023-11-19T07:09:53;11.60;99.90
19085;DHT22;9675;51.538;6.728;2023-11-19T07:12:20;11.60;99.90
19085;DHT22;9675;51.538;6.728;2023-11-19T07:14:47;11.60;99.90
19085;DHT22;9675;51.538;6.728;2023-11-19T07:17:14;11.60;99.90
19085;DHT22;9675;51.538;6.728;2023-11-19T07:19:41;11.60;99.90
19085;DHT22;9675;51.538;6.728;2023-11-19T07:22:08;11.60;99.90
19085;DHT22;9675;51.538;6.728;2023-11-19T07:24:39;11.60;99.90
19085;DHT22;9675;51.538;6.728;2023-11-19T07:27:07;11.50;99.90
19085;DHT22;9675;51.538;6.728;2023-11-19T07:29:34;11.50;99.90
19085;DHT22;9675;51.538;6.728;2023-11-19T07:32:01;11.50;99.90
19085;DHT22;9675;51.538;6.728;2023-11-19T07:34:28;11.50;99.90
19085;DHT22;9675;51.538;6.728;2023-11-19T07:36:55;11.50;99.90
19085;DHT22;9675;51.538;6.728;2023-11-19T07:39:26;11.50;99.90
19085;DHT22;9675;51.538;6.728;2023-11-19T07:41:53;11.50;99.90
19085;DHT22;9675;51.538;6.728;2023-11-19T07:44:20;11.50;99.90
19085;DHT22;9675;51.538;6.728;2023-11-19T07:46:47;11.50;99.90
19085;DHT22;9675;51.538;6.728;2023-11-19T07:49:14;11.50;99.90
19085;DHT22;9675;51.538;6.728;2023-11-19T07:51:41;11.50;99.90
19085;DHT22;9675;51.538;6.728;2023-11-19T07:54:08;11.50;99.90
19085;DHT22;9675;51.538;6.728;2023-11-19T07:56:37;11.40;99.90
19085;DHT22;9675;51.538;6.728;2023-11-19T07:59:04;11.50;99.90
19085;DHT22;9675;51.538;6.728;2023-11-19T08:01:32;11.50;99.90
19085;DHT22;9675;51.538;6.728;2023-11-19T08:03:59;11.50;99.90
19085;DHT22;9675;51.538;6.728;2023-11-19T08:06:27;11.50;99.90
19085;DHT22;9675;51.538;6.728;2023-11-19T08:08:54;11.50;99.90
19085;DHT22;9675;51.538;6.728;2023-11-19T08:11:21;11.50;99.90
19085;DHT22;9675;51.538;6.728;2023-11-19T08:13:49;11.50;99.90
19085;DHT22;9675;51.538;6.728;2023-11-19T08:16:17;11.50;99.90
19085;DHT22;9675;51.538;6.728;2023-11-19T08:18:44;11.50;99.90
19085;DHT22;9675;51.538;6.728;2023-11-19T08:21:11;11.50;99.90
19085;DHT22;9675;51.538;6.728;2023-11-19T08:23:39;11.50;99.90
19085;DHT22;9675;51.538;6.728;2023-11-19T08:26:06;11.50;99.90
19085;DHT22;9675;51.538;6.728;2023-11-19T08:28:34;11.50;99.90
19085;DHT22;9675;51.538;6.728;2023-11-19T08:31:02;11.50;99.90
19085;DHT22;9675;51.538;6.728;2023-11-19T08:33:31;11.50;99.90
19085;DHT22;9675;51.538;6.728;2023-11-19T08:35:58;11.50;99.90
19085;DHT22;9675;51.538;6.728;2023-11-19T08:38:26;11.50;99.90
19085;DHT22;9675;51.538;6.728;2023-11-19T08:40:53;11.60;99.90
19085;DHT22;9675;51.538;6.728;2023-11-19T08:43:25;11.50;99.90
19085;DHT22;9675;51.538;6.728;2023-11-19T08:45:52;11.60;99.90
19085;DHT22;9675;51.538;6.728;2023-11-19T08:48:20;11.60;99.90
19085;DHT22;9675;51.538;6.728;2023-11-19T08:50:47;11.60;99.90
19085;DHT22;9675;51.538;6.728;2023-11-19T08:53:14;11.60;99.90
19085;DHT22;9675;51.538;6.728;2023-11-19T08:55:41;11.60;99.90
19085;DHT22;9675;51.538;6.728;2023-11-19T08:58:08;11.60;99.90
19085;DHT22;9675;51.538;6.728;2023-11-19T09:00:35;11.60;99.90
19085;DHT22;9675;51.538;6.728;2023-11-19T09:03:02;11.70;99.90
19085;DHT22;9675;51.538;6.728;2023-11-19T09:05:31;11.70;99.90
19085;DHT22;9675;51.538;6.728;2023-11-19T09:07:58;11.70;99.90
19085;DHT22;9675;51.538;6.728;2023-11-19T09:10:25;11.70;99.90
19085;DHT22;9675;51.538;6.728;2023-11-19T09:12:52;11.80;99.90
19085;DHT22;9675;51.538;6.728;2023-11-19T09:15:19;11.70;99.90
19085;DHT22;9675;51.538;6.728;2023-11-19T09:17:46;11.80;99.90
19085;DHT22;9675;51.538;6.728;2023-11-19T09:20:13;11.80;99.90
19085;DHT22;9675;51.538;6.728;2023-11-19T09:22:42;11.80;99.90
19085;DHT22;9675;51.538;6.728;2023-11-19T09:25:09;11.90;99.90
19085;DHT22;9675;51.538;6.728;2023-11-19T09:27:36;11.80;99.90
19085;DHT22;9675;51.538;6.728;2023-11-19T09:30:04;11.80;99.90
19085;DHT22;9675;51.538;6.728;2023-11-19T09:32:33;11.90;99.90
19085;DHT22;9675;51.538;6.728;2023-11-19T09:35:00;11.90;99.90
19085;DHT22;9675;51.538;6.728;2023-11-19T09:37:28;11.90;99.90
19085;DHT22;9675;51.538;6.728;2023-11-19T09:39:56;11.90;99.90
19085;DHT22;9675;51.538;6.728;2023-11-19T09:42:24;12.00;99.90
19085;DHT22;9675;51.538;6.728;2023-11-19T09:44:53;12.00;99.90
19085;DHT22;9675;51.538;6.728;2023-11-19T09:47:23;12.00;99.90
19085;DHT22;9675;51.538;6.728;2023-11-19T09:49:53;12.10;99.90
19085;DHT22;9675;51.538;6.728;2023-11-19T09:52:20;12.10;99.90
19085;DHT22;9675;51.538;6.728;2023-11-19T09:54:47;12.10;99.90
19085;DHT22;9675;51.538;6.728;2023-11-19T09:57:17;12.20;99.90
19085;DHT22;9675;51.538;6.728;2023-11-19T09:59:45;12.20;99.90
19085;DHT22;9675;51.538;6.728;2023-11-19T10:02:14;12.20;99.90
19085;DHT22;9675;51.538;6.728;2023-11-19T10:04:43;12.30;99.90
19085;DHT22;9675;51.538;6.728;2023-11-19T10:07:13;12.30;99.90
19085;DHT22;9675;51.538;6.728;2023-11-19T10:09:40;12.40;99.90
19085;DHT22;9675;51.538;6.728;2023-11-19T10:12:07;12.40;99.90
19085;DHT22;9675;51.538;6.728;2023-11-19T10:14:38;12.40;99.90
19085;DHT22;9675;51.538;6.728;2023-11-19T10:17:07;12.40;99.90
19085;DHT22;9675;51.538;6.728;2023-11-19T10:19:34;12.40;99.90
19085;DHT22;9675;51.538;6.728;2023-11-19T10:22:04;12.50;99.90
19085;DHT22;9675;51.538;6.728;2023-11-19T10:24:32;12.60;99.90
19085;DHT22;9675;51.538;6.728;2023-11-19T10:27:00;12.60;99.90
19085;DHT22;9675;51.538;6.728;2023-11-19T10:29:29;12.60;99.90
19085;DHT22;9675;51.538;6.728;2023-11-19T10:31:58;12.60;99.90
19085;DHT22;9675;51.538;6.728;2023-11-19T10:34:26;12.70;99.90
19085;DHT22;9675;51.538;6.728;2023-11-19T10:36:55;12.60;99.90
19085;DHT22;9675;51.538;6.728;2023-11-19T10:39:22;12.70;99.90
19085;DHT22;9675;51.538;6.728;2023-11-19T10:41:50;12.70;99.90
19085;DHT22;9675;51.538;6.728;2023-11-19T10:44:32;12.70;99.90
19085;DHT22;9675;51.538;6.728;2023-11-19T10:47:06;12.70;99.90
19085;DHT22;9675;51.538;6.728;2023-11-19T10:49:35;12.80;99.90
19085;DHT22;9675;51.538;6.728;2023-11-19T10:52:05;12.80;99.90
19085;DHT22;9675;51.538;6.728;2023-11-19T10:54:35;12.80;99.90
19085;DHT22;9675;51.538;6.728;2023-11-19T10:57:06;12.80;99.90
19085;DHT22;9675;51.538;6.728;2023-11-19T10:59:37;12.80;99.90
19085;DHT22;9675;51.538;6.728;2023-11-19T11:02:10;12.80;99.90
19085;DHT22;9675;51.538;6.728;2023-11-19T11:04:46;12.90;99.90
19085;DHT22;9675;51.538;6.728;2023-11-19T11:07:15;12.90;99.90
19085;DHT22;9675;51.538;6.728;2023-11-19T11:09:48;12.90;99.90
19085;DHT22;9675;51.538;6.728;2023-11-19T11:12:18;12.90;99.90
19085;DHT22;9675;51.538;6.728;2023-11-19T11:14:49;12.90;99.90
19085;DHT22;9675;51.538;6.728;2023-11-19T11:17:20;12.90;99.90
19085;DHT22;9675;51.538;6.728;2023-11-19T11:19:53;13.00;99.90
19085;DHT22;9675;51.538;6.728;2023-11-19T11:22:22;13.00;99.90
19085;DHT22;9675;51.538;6.728;2023-11-19T11:25:10;13.00;99.90
19085;DHT22;9675;51.538;6.728;2023-11-19T11:28:04;13.10;99.90
19085;DHT22;9675;51.538;6.728;2023-11-19T11:30:49;13.00;99.90
19085;DHT22;9675;51.538;6.728;2023-11-19T11:33:41;13.10;99.90
19085;DHT22;9675;51.538;6.728;2023-11-19T11:36:26;13.10;99.90
19085;DHT22;9675;51.538;6.728;2023-11-19T11:38:58;13.10;99.90
19085;DHT22;9675;51.538;6.728;2023-11-19T11:41:26;13.10;99.90
19085;DHT22;9675;51.538;6.728;2023-11-19T11:43:55;13.20;99.90
19085;DHT22;9675;51.538;6.728;2023-11-19T11:46:56;13.20;99.90
19085;DHT22;9675;51.538;6.728;2023-11-19T11:49:28;13.20;99.90
19085;DHT22;9675;51.538;6.728;2023-11-19T11:52:04;13.20;99.90
19085;DHT22;9675;51.538;6.728;2023-11-19T11:54:31;13.30;99.90
19085;DHT22;9675;51.538;6.728;2023-11-19T11:57:11;13.30;99.90
19085;DHT22;9675;51.538;6.728;2023-11-19T11:59:50;13.40;99.90
19085;DHT22;9675;51.538;6.728;2023-11-19T12:02:19;13.40;99.90
19085;DHT22;9675;51.538;6.728;2023-11-19T12:04:50;13.50;99.90
19085;DHT22;9675;51.538;6.728;2023-11-19T12:07:20;13.50;99.90
19085;DHT22;9675;51.538;6.728;2023-11-19T12:09:51;13.60;99.90
19085;DHT22;9675;51.538;6.728;2023-11-19T12:12:27;13.60;99.90
19085;DHT22;9675;51.538;6.728;2023-11-19T12:15:06;13.60;99.90
19085;DHT22;9675;51.538;6.728;2023-11-19T12:17:37;13.60;99.90
19085;DHT22;9675;51.538;6.728;2023-11-19T12:20:11;13.60;99.90
19085;DHT22;9675;51.538;6.728;2023-11-19T12:22:40;13.70;99.90
19085;DHT22;9675;51.538;6.728;2023-11-19T12:25:09;13.60;99.90
19085;DHT22;9675;51.538;6.728;2023-11-19T12:27:39;13.70;99.90
19085;DHT22;9675;51.538;6.728;2023-11-19T12:30:08;13.70;99.90
19085;DHT22;9675;51.538;6.728;2023-11-19T12:32:39;13.70;99.90
19085;DHT22;9675;51.538;6.728;2023-11-19T12:35:07;13.70;99.90
19085;DHT22;9675;51.538;6.728;2023-11-19T12:37:45;13.70;99.90
19085;DHT22;9675;51.538;6.728;2023-11-19T12:40:18;13.70;99.90
19085;DHT22;9675;51.538;6.728;2023-11-19T12:42:46;13.70;99.90
19085;DHT22;9675;51.538;6.728;2023-11-19T12:45:13;13.70;99.90
19085;DHT22;9675;51.538;6.728;2023-11-19T12:47:42;13.70;99.90
19085;DHT22;9675;51.538;6.728;2023-11-19T12:50:10;13.70;99.90
19085;DHT22;9675;51.538;6.728;2023-11-19T12:52:38;13.70;99.90
19085;DHT22;9675;51.538;6.728;2023-11-19T12:55:26;13.60;99.90
19085;DHT22;9675;51.538;6.728;2023-11-19T12:57:54;13.60;99.90
19085;DHT22;9675;51.538;6.728;2023-11-19T13:00:23;13.60;99.90
19085;DHT22;9675;51.538;6.728;2023-11-19T13:02:52;13.70;99.90
19085;DHT22;9675;51.538;6.728;2023-11-19T13:05:24;13.70;99.90
19085;DHT22;9675;51.538;6.728;2023-11-19T13:07:58;13.70;99.90
19085;DHT22;9675;51.538;6.728;2023-11-19T13:10:28;13.70;99.90
19085;DHT22;9675;51.538;6.728;2023-11-19T13:13:06;13.70;99.90
19085;DHT22;9675;51.538;6.728;2023-11-19T13:15:35;13.70;99.90
19085;DHT22;9675;51.538;6.728;2023-11-19T13:18:03;13.80;99.90
19085;DHT22;9675;51.538;6.728;2023-11-19T13:20:30;13.80;99.90
19085;DHT22;9675;51.538;6.728;2023-11-19T13:22:58;13.80;99.90
19085;DHT22;9675;51.538;6.728;2023-11-19T13:25:27;13.90;99.90
19085;DHT22;9675;51.538;6.728;2023-11-19T13:27:55;13.90;99.90
19085;DHT22;9675;51.538;6.728;2023-11-19T13:30:23;13.90;99.90
19085;DHT22;9675;51.538;6.728;2023-11-19T13:32:51;13.90;99.90
19085;DHT22;9675;51.538;6.728;2023-11-19T13:35:21;13.90;99.90
19085;DHT22;9675;51.538;6.728;2023-11-19T13:37:48;14.00;99.90
19085;DHT22;9675;51.538;6.728;2023-11-19T13:40:15;14.00;99.90
19085;DHT22;9675;51.538;6.728;2023-11-19T13:42:44;14.10;99.90
19085;DHT22;9675;51.538;6.728;2023-11-19T13:45:12;14.10;99.90
19085;DHT22;9675;51.538;6.728;2023-11-19T13:47:41;14.10;99.90
19085;DHT22;9675;51.538;6.728;2023-11-19T13:50:10;14.10;99.90
19085;DHT22;9675;51.538;6.728;2023-11-19T13:52:37;14.10;99.90
19085;DHT22;9675;51.538;6.728;2023-11-19T13:55:07;14.10;99.90
19085;DHT22;9675;51.538;6.728;2023-11-19T13:57:36;14.10;99.90
19085;DHT22;9675;51.538;6.728;2023-11-19T14:00:06;14.20;99.90
19085;DHT22;9675;51.538;6.728;2023-11-19T14:02:38;14.20;99.90
19085;DHT22;9675;51.538;6.728;2023-11-19T14:05:05;14.10;99.90
19085;DHT22;9675;51.538;6.728;2023-11-19T14:07:33;14.10;99.90
19085;DHT22;9675;51.538;6.728;2023-11-19T14:10:00;14.10;99.90
19085;DHT22;9675;51.538;6.728;2023-11-19T14:12:27;14.20;99.90
19085;DHT22;9675;51.538;6.728;2023-11-19T14:14:54;14.10;99.90
19085;DHT22;9675;51.538;6.728;2023-11-19T14:17:22;14.20;99.90
19085;DHT22;9675;51.538;6.728;2023-11-19T14:19:50;14.10;99.90
19085;DHT22;9675;51.538;6.728;2023-11-19T14:22:17;14.10;99.90
19085;DHT22;9675;51.538;6.728;2023-11-19T14:24:44;14.10;99.90
19085;DHT22;9675;51.538;6.728;2023-11-19T14:27:11;14.00;99.90
19085;DHT22;9675;51.538;6.728;2023-11-19T14:29:38;14.00;99.90
19085;DHT22;9675;51.538;6.728;2023-11-19T14:32:06;14.00;99.90
19085;DHT22;9675;51.538;6.728;2023-11-19T14:34:34;14.00;99.90
19085;DHT22;9675;51.538;6.728;2023-11-19T14:37:01;14.00;99.90
19085;DHT22;9675;51.538;6.728;2023-11-19T14:39:29;13.90;99.90
19085;DHT22;9675;51.538;6.728;2023-11-19T14:41:56;13.90;99.90
19085;DHT22;9675;51.538;6.728;2023-11-19T14:44:26;13.80;99.90
19085;DHT22;9675;51.538;6.728;2023-11-19T14:46:54;13.80;99.90
19085;DHT22;9675;51.538;6.728;2023-11-19T14:49:22;13.80;99.90
19085;DHT22;9675;51.538;6.728;2023-11-19T14:51:51;13.80;99.90
19085;DHT22;9675;51.538;6.728;2023-11-19T14:54:18;13.70;99.90
19085;DHT22;9675;51.538;6.728;2023-11-19T14:56:45;13.80;99.90
19085;DHT22;9675;51.538;6.728;2023-11-19T14:59:12;13.70;99.90
19085;DHT22;9675;51.538;6.728;2023-11-19T15:01:39;13.70;99.90
19085;DHT22;9675;51.538;6.728;2023-11-19T15:04:07;13.60;99.90
19085;DHT22;9675;51.538;6.728;2023-11-19T15:06:33;13.60;99.90
19085;DHT22;9675;51.538;6.728;2023-11-19T15:09:03;13.50;99.90
19085;DHT22;9675;51.538;6.728;2023-11-19T15:11:30;13.50;99.90
19085;DHT22;9675;51.538;6.728;2023-11-19T15:13:58;13.50;99.90
19085;DHT22;9675;51.538;6.728;2023-11-19T15:16:25;13.50;99.90
19085;DHT22;9675;51.538;6.728;2023-11-19T15:18:57;13.50;99.90
19085;DHT22;9675;51.538;6.728;2023-11-19T15:21:26;13.40;99.90
19085;DHT22;9675;51.538;6.728;2023-11-19T15:23:54;13.40;99.90
19085;DHT22;9675;51.538;6.728;2023-11-19T15:26:23;13.40;99.90
19085;DHT22;9675;51.538;6.728;2023-11-19T15:28:50;13.40;99.90
19085;DHT22;9675;51.538;6.728;2023-11-19T15:31:21;13.40;99.90
19085;DHT22;9675;51.538;6.728;2023-11-19T15:33:48;13.30;99.90
19085;DHT22;9675;51.538;6.728;2023-11-19T15:36:16;13.30;99.90
19085;DHT22;9675;51.538;6.728;2023-11-19T15:38:43;13.30;99.90
19085;DHT22;9675;51.538;6.728;2023-11-19T15:41:10;13.20;99.90
19085;DHT22;9675;51.538;6.728;2023-11-19T15:43:39;13.10;99.90
19085;DHT22;9675;51.538;6.728;2023-11-19T15:46:06;13.20;99.90
19085;DHT22;9675;51.538;6.728;2023-11-19T15:48:34;13.10;99.90
19085;DHT22;9675;51.538;6.728;2023-11-19T15:51:02;13.10;99.90
19085;DHT22;9675;51.538;6.728;2023-11-19T15:53:29;13.10;99.90
19085;DHT22;9675;51.538;6.728;2023-11-19T15:55:57;13.00;99.90